createdAt,value
2018-08-25T00:00:19.297Z,94500.00
2018-08-25T00:02:51.448Z,94504.00
2018-08-25T00:05:23.889Z,94505.00
2018-08-25T00:07:56.146Z,94509.00
2018-08-25T00:10:28.439Z,94502.00
2018-08-25T00:13:01.617Z,94499.00
2018-08-25T00:15:34.494Z,94508.00
2018-08-25T00:18:07.318Z,94504.00
2018-08-25T00:20:40.877Z,94505.00
2018-08-25T00:23:13.015Z,94505.00
2018-08-25T00:25:45.537Z,94503.00
2018-08-25T00:28:17.843Z,94510.00
2018-08-25T00:34:25.911Z,94510.00
2018-08-25T00:36:58.913Z,94511.00
2018-08-25T00:39:31.026Z,94515.00
2018-08-25T00:42:02.785Z,94519.00
2018-08-25T00:44:34.884Z,94515.00
2018-08-25T00:47:07.355Z,94516.00
2018-08-25T00:49:39.732Z,94518.00
2018-08-25T00:52:12.121Z,94523.00
2018-08-25T00:54:44.364Z,94529.00
2018-08-25T00:57:16.686Z,94527.00
2018-08-25T00:59:48.854Z,94525.00
2018-08-25T01:02:21.250Z,94530.00
2018-08-25T01:04:53.526Z,94529.00
2018-08-25T01:07:25.724Z,94527.00
2018-08-25T01:09:57.740Z,94525.00
2018-08-25T01:12:30.017Z,94527.00
2018-08-25T01:15:02.138Z,94527.00
2018-08-25T01:17:33.931Z,94531.00
2018-08-25T01:20:06.334Z,94531.00
2018-08-25T01:22:38.881Z,94529.00
2018-08-25T01:25:11.472Z,94533.00
2018-08-25T01:27:43.659Z,94535.00
2018-08-25T01:30:15.681Z,94538.00
2018-08-25T01:32:48.734Z,94539.00
2018-08-25T01:35:20.953Z,94539.00
2018-08-25T01:37:52.982Z,94536.00
2018-08-25T01:40:25.414Z,94539.00
2018-08-25T01:42:57.530Z,94538.00
2018-08-25T01:45:29.561Z,94538.00
2018-08-25T01:48:01.586Z,94539.00
2018-08-25T01:50:33.752Z,94537.00
2018-08-25T01:53:06.396Z,94540.00
2018-08-25T01:55:38.945Z,94536.00
2018-08-25T01:58:11.432Z,94531.00
2018-08-25T02:00:43.543Z,94530.00
2018-08-25T02:03:16.607Z,94530.00
2018-08-25T02:05:48.599Z,94531.00
2018-08-25T02:08:20.880Z,94535.00
2018-08-25T02:10:52.878Z,94529.00
2018-08-25T02:13:24.988Z,94531.00
2018-08-25T02:15:57.345Z,94537.00
2018-08-25T02:18:29.719Z,94536.00
2018-08-25T02:21:01.876Z,94538.00
2018-08-25T02:23:35.279Z,94537.00
2018-08-25T02:26:07.842Z,94541.00
2018-08-25T02:28:39.784Z,94535.00
2018-08-25T02:31:11.824Z,94538.00
2018-08-25T02:33:43.815Z,94540.00
2018-08-25T02:36:16.150Z,94539.00
2018-08-25T02:38:48.896Z,94541.00
2018-08-25T02:41:20.996Z,94548.00
2018-08-25T02:43:53.349Z,94544.00
2018-08-25T02:46:25.846Z,94548.00
2018-08-25T02:48:57.613Z,94548.00
2018-08-25T02:51:29.896Z,94547.00
2018-08-25T02:54:02.741Z,94540.00
2018-08-25T02:56:35.067Z,94548.00
2018-08-25T02:59:07.213Z,94542.00
2018-08-25T03:01:41.731Z,94543.00
2018-08-25T03:04:13.919Z,94536.00
2018-08-25T03:06:46.142Z,94541.00
2018-08-25T03:09:18.555Z,94539.00
2018-08-25T03:11:50.954Z,94544.00
2018-08-25T03:14:23.456Z,94540.00
2018-08-25T03:16:56.308Z,94546.00
2018-08-25T03:19:28.892Z,94546.00
2018-08-25T03:22:01.124Z,94547.00
2018-08-25T03:24:33.428Z,94546.00
2018-08-25T03:27:05.943Z,94542.00
2018-08-25T03:29:38.623Z,94547.00
2018-08-25T03:32:10.927Z,94559.00
2018-08-25T03:34:43.488Z,94550.00
2018-08-25T03:37:15.886Z,94553.00
2018-08-25T03:39:48.513Z,94553.00
2018-08-25T03:42:20.766Z,94556.00
2018-08-25T03:44:53.202Z,94555.00
2018-08-25T03:47:25.380Z,94560.00
2018-08-25T03:49:57.565Z,94566.00
2018-08-25T03:52:29.700Z,94564.00
2018-08-25T03:55:01.736Z,94562.00
2018-08-25T03:57:33.867Z,94560.00
2018-08-25T04:00:06.149Z,94565.00
2018-08-25T04:02:38.841Z,94561.00
2018-08-25T04:05:10.856Z,94560.00
2018-08-25T04:07:43.089Z,94567.00
2018-08-25T04:10:15.303Z,94564.00
2018-08-25T04:12:47.593Z,94567.00
2018-08-25T04:15:21.505Z,94571.00
2018-08-25T04:17:53.867Z,94575.00
2018-08-25T04:20:26.198Z,94582.00
2018-08-25T04:22:58.543Z,94582.00
2018-08-25T04:25:30.704Z,94581.00
2018-08-25T04:28:03.044Z,94581.00
2018-08-25T04:30:35.820Z,94572.00
2018-08-25T04:33:08.056Z,94574.00
2018-08-25T04:35:41.291Z,94577.00
2018-08-25T04:38:13.235Z,94580.00
2018-08-25T04:40:45.677Z,94576.00
2018-08-25T04:43:18.919Z,94579.00
2018-08-25T04:45:50.866Z,94582.00
2018-08-25T04:48:25.078Z,94584.00
2018-08-25T04:50:58.520Z,94587.00
2018-08-25T04:53:30.791Z,94585.00
2018-08-25T04:56:03.281Z,94582.00
2018-08-25T04:58:35.555Z,94581.00
2018-08-25T05:01:07.822Z,94581.00
2018-08-25T05:03:40.538Z,94584.00
2018-08-25T05:06:12.666Z,94578.00
2018-08-25T05:08:44.601Z,94572.00
2018-08-25T05:11:16.977Z,94578.00
2018-08-25T05:13:48.852Z,94578.00
2018-08-25T05:16:21.487Z,94573.00
2018-08-25T05:18:54.331Z,94573.00
2018-08-25T05:21:27.339Z,94571.00
2018-08-25T05:23:59.384Z,94571.00
2018-08-25T05:26:31.874Z,94569.00
2018-08-25T05:29:04.725Z,94570.00
2018-08-25T05:31:37.082Z,94575.00
2018-08-25T05:34:09.426Z,94577.00
2018-08-25T05:36:41.761Z,94569.00
2018-08-25T05:39:13.753Z,94576.00
2018-08-25T05:41:46.285Z,94570.00
2018-08-25T05:44:18.427Z,94566.00
2018-08-25T05:46:50.315Z,94568.00
2018-08-25T05:49:22.471Z,94569.00
2018-08-25T05:51:54.857Z,94570.00
2018-08-25T05:54:27.396Z,94570.00
2018-08-25T05:56:59.941Z,94571.00
2018-08-25T05:59:32.221Z,94568.00
2018-08-25T06:02:04.628Z,94568.00
2018-08-25T06:04:37.186Z,94564.00
2018-08-25T06:07:09.671Z,94570.00
2018-08-25T06:09:41.926Z,94573.00
2018-08-25T06:12:14.689Z,94571.00
2018-08-25T06:14:47.068Z,94568.00
2018-08-25T06:17:19.242Z,94571.00
2018-08-25T06:19:50.947Z,94569.00
2018-08-25T06:22:24.417Z,94571.00
2018-08-25T06:24:56.631Z,94575.00
2018-08-25T06:27:29.236Z,94572.00
2018-08-25T06:30:01.870Z,94570.00
2018-08-25T06:32:34.884Z,94578.00
2018-08-25T06:35:06.837Z,94576.00
2018-08-25T06:37:39.511Z,94574.00
2018-08-25T06:40:12.089Z,94576.00
2018-08-25T06:42:44.065Z,94576.00
2018-08-25T06:45:15.933Z,94576.00
2018-08-25T06:47:48.292Z,94575.00
2018-08-25T06:50:20.053Z,94575.00
2018-08-25T06:52:52.482Z,94573.00
2018-08-25T06:55:24.951Z,94578.00
2018-08-25T06:57:57.419Z,94573.00
2018-08-25T07:00:29.799Z,94573.00
2018-08-25T07:03:01.813Z,94568.00
2018-08-25T07:05:34.231Z,94562.00
2018-08-25T07:08:05.893Z,94562.00
2018-08-25T07:10:38.541Z,94564.00
2018-08-25T07:13:10.857Z,94554.00
2018-08-25T07:15:43.115Z,94552.00
2018-08-25T07:18:15.094Z,94554.00
2018-08-25T07:20:47.846Z,94552.00
2018-08-25T07:23:19.970Z,94549.00
2018-08-25T07:25:51.962Z,94548.00
2018-08-25T07:28:25.001Z,94553.00
2018-08-25T07:30:58.158Z,94550.00
2018-08-25T07:33:30.908Z,94553.00
2018-08-25T07:36:03.500Z,94556.00
2018-08-25T07:38:35.565Z,94555.00
2018-08-25T07:41:07.779Z,94555.00
2018-08-25T07:43:39.596Z,94552.00
2018-08-25T07:46:11.693Z,94552.00
2018-08-25T07:48:44.138Z,94550.00
2018-08-25T07:51:17.029Z,94555.00
2018-08-25T07:53:49.232Z,94553.00
2018-08-25T07:56:21.490Z,94551.00
2018-08-25T07:58:53.235Z,94549.00
2018-08-25T08:01:25.689Z,94552.00
2018-08-25T08:03:57.983Z,94549.00
2018-08-25T08:06:31.357Z,94547.00
2018-08-25T08:09:04.300Z,94545.00
2018-08-25T08:11:36.670Z,94542.00
2018-08-25T08:14:08.791Z,94540.00
2018-08-25T08:16:40.324Z,94544.00
2018-08-25T08:19:13.103Z,94542.00
2018-08-25T08:21:45.675Z,94533.00
2018-08-25T08:24:17.955Z,94542.00
2018-08-25T08:26:50.101Z,94537.00
2018-08-25T08:29:23.048Z,94532.00
2018-08-25T08:31:55.355Z,94533.00
2018-08-25T08:34:27.149Z,94527.00
2018-08-25T08:36:59.224Z,94529.00
2018-08-25T08:39:31.634Z,94528.00
2018-08-25T08:42:03.757Z,94529.00
2018-08-25T08:44:36.268Z,94530.00
2018-08-25T08:47:08.980Z,94531.00
2018-08-25T08:49:47.217Z,94524.00
2018-08-25T08:52:13.774Z,94521.00
2018-08-25T08:54:46.718Z,94516.00
2018-08-25T08:57:19.985Z,94518.00
2018-08-25T08:59:52.135Z,94516.00
2018-08-25T09:02:23.894Z,94510.00
2018-08-25T09:04:56.749Z,94507.00
2018-08-25T09:07:29.794Z,94505.00
2018-08-25T09:10:01.910Z,94498.00
2018-08-25T09:12:34.401Z,94493.00
2018-08-25T09:15:06.793Z,94491.00
2018-08-25T09:17:40.230Z,94485.00
2018-08-25T09:20:13.012Z,94475.00
2018-08-25T09:22:45.225Z,94476.00
2018-08-25T09:25:17.408Z,94469.00
2018-08-25T09:27:49.375Z,94465.00
2018-08-25T09:30:21.572Z,94463.00
2018-08-25T09:32:54.244Z,94458.00
2018-08-25T09:35:26.721Z,94454.00
2018-08-25T09:37:58.974Z,94450.00
2018-08-25T09:40:30.881Z,94451.00
2018-08-25T09:43:02.716Z,94450.00
2018-08-25T09:45:34.816Z,94446.00
2018-08-25T09:48:07.146Z,94447.00
2018-08-25T09:50:39.465Z,94444.00
2018-08-25T09:53:11.624Z,94441.00
2018-08-25T09:55:44.098Z,94442.00
2018-08-25T09:58:15.984Z,94434.00
2018-08-25T10:00:52.526Z,94428.00
2018-08-25T10:03:24.579Z,94430.00
2018-08-25T10:05:56.959Z,94421.00
2018-08-25T10:08:28.832Z,94420.00
2018-08-25T10:11:02.022Z,94422.00
2018-08-25T10:13:34.271Z,94409.00
2018-08-25T10:16:06.812Z,94407.00
2018-08-25T10:18:39.353Z,94409.00
2018-08-25T10:21:11.984Z,94400.00
2018-08-25T10:23:44.078Z,94397.00
2018-08-25T10:26:16.010Z,94398.00
2018-08-25T10:28:48.114Z,94395.00
2018-08-25T10:31:20.317Z,94388.00
2018-08-25T10:33:52.867Z,94388.00
2018-08-25T10:36:25.477Z,94387.00
2018-08-25T10:38:57.570Z,94379.00
2018-08-25T10:41:29.973Z,94375.00
2018-08-25T10:44:01.970Z,94369.00
2018-08-25T10:46:34.301Z,94366.00
2018-08-25T10:49:06.815Z,94371.00
2018-08-25T10:51:39.279Z,94363.00
2018-08-25T10:54:11.058Z,94362.00
2018-08-25T10:56:43.158Z,94362.00
2018-08-25T10:59:15.328Z,94359.00
2018-08-25T11:01:47.573Z,94353.00
2018-08-25T11:04:19.748Z,94349.00
2018-08-25T11:06:52.079Z,94350.00
2018-08-25T11:09:24.500Z,94350.00
2018-08-25T11:11:57.130Z,94347.00
2018-08-25T11:14:29.371Z,94347.00
2018-08-25T11:17:01.407Z,94344.00
2018-08-25T11:19:34.014Z,94339.00
2018-08-25T11:22:06.252Z,94339.00
2018-08-25T11:24:38.332Z,94340.00
2018-08-25T11:27:10.488Z,94332.00
2018-08-25T11:29:42.842Z,94329.00
2018-08-25T11:32:14.419Z,94327.00
2018-08-25T11:34:46.344Z,94320.00
2018-08-25T11:37:18.828Z,94328.00
2018-08-25T11:39:51.122Z,94320.00
2018-08-25T11:42:23.772Z,94318.00
2018-08-25T11:44:56.111Z,94312.00
2018-08-25T11:47:28.610Z,94315.00
2018-08-25T11:50:00.714Z,94308.00
2018-08-25T11:52:32.497Z,94303.00
2018-08-25T11:55:05.391Z,94298.00
2018-08-25T11:57:37.512Z,94297.00
2018-08-25T12:00:10.871Z,94290.00
2018-08-25T12:02:43.606Z,94289.00
2018-08-25T12:05:16.115Z,94282.00
2018-08-25T12:07:47.934Z,94279.00
2018-08-25T12:10:19.918Z,94286.00
2018-08-25T12:12:52.869Z,94276.00
2018-08-25T12:15:25.774Z,94270.00
2018-08-25T12:17:57.865Z,94274.00
2018-08-25T12:20:31.535Z,94267.00
2018-08-25T12:23:03.982Z,94271.00
2018-08-25T12:25:37.795Z,94271.00
2018-08-25T12:28:11.044Z,94268.00
2018-08-25T12:30:44.439Z,94270.00
2018-08-25T12:33:18.104Z,94257.00
2018-08-25T12:35:51.183Z,94258.00
2018-08-25T12:38:23.798Z,94259.00
2018-08-25T12:40:56.300Z,94254.00
2018-08-25T12:43:29.410Z,94256.00
2018-08-25T12:46:01.719Z,94252.00
2018-08-25T12:48:33.970Z,94249.00
2018-08-25T12:51:06.765Z,94252.00
2018-08-25T12:53:39.240Z,94248.00
2018-08-25T12:56:11.375Z,94242.00
2018-08-25T12:58:44.018Z,94244.00
2018-08-25T13:01:16.465Z,94237.00
2018-08-25T13:03:49.088Z,94229.00
2018-08-25T13:06:21.572Z,94222.00
2018-08-25T13:08:54.507Z,94221.00
2018-08-25T13:11:27.179Z,94223.00
2018-08-25T13:13:59.620Z,94235.00
2018-08-25T13:16:31.916Z,94229.00
2018-08-25T13:19:04.397Z,94232.00
2018-08-25T13:21:36.629Z,94233.00
2018-08-25T13:24:09.947Z,94243.00
2018-08-25T13:26:42.544Z,94245.00
2018-08-25T13:29:14.898Z,94242.00
2018-08-25T13:31:47.642Z,94246.00
2018-08-25T13:34:20.617Z,94245.00
2018-08-25T13:36:53.060Z,94242.00
2018-08-25T13:39:25.567Z,94239.00
2018-08-25T13:41:58.168Z,94244.00
2018-08-25T13:44:30.620Z,94248.00
2018-08-25T13:47:03.769Z,94259.00
2018-08-25T13:49:36.872Z,94255.00
2018-08-25T13:52:09.537Z,94254.00
2018-08-25T13:54:41.433Z,94248.00
2018-08-25T13:57:14.281Z,94246.00
2018-08-25T13:59:46.884Z,94245.00
2018-08-25T14:02:19.025Z,94251.00
2018-08-25T14:04:52.566Z,94238.00
2018-08-25T14:07:24.960Z,94229.00
2018-08-25T14:09:57.460Z,94225.00
2018-08-25T14:12:29.154Z,94223.00
2018-08-25T14:15:01.482Z,94223.00
2018-08-25T14:17:33.548Z,94223.00
2018-08-25T14:20:06.070Z,94225.00
2018-08-25T14:22:38.955Z,94232.00
2018-08-25T14:25:11.234Z,94226.00
2018-08-25T14:27:44.224Z,94236.00
2018-08-25T14:30:16.098Z,94229.00
2018-08-25T14:32:48.607Z,94224.00
2018-08-25T14:35:21.286Z,94222.00
2018-08-25T14:37:54.052Z,94227.00
2018-08-25T14:40:26.650Z,94226.00
2018-08-25T14:43:01.198Z,94235.00
2018-08-25T14:45:33.135Z,94229.00
2018-08-25T14:48:06.260Z,94228.00
2018-08-25T14:50:38.966Z,94237.00
2018-08-25T14:53:11.745Z,94238.00
2018-08-25T14:55:44.701Z,94237.00
2018-08-25T14:58:16.784Z,94237.00
2018-08-25T15:00:49.456Z,94239.00
2018-08-25T15:03:21.285Z,94244.00
2018-08-25T15:05:53.469Z,94248.00
2018-08-25T15:08:26.597Z,94247.00
2018-08-25T15:10:58.511Z,94252.00
2018-08-25T15:13:30.764Z,94251.00
2018-08-25T15:16:03.521Z,94248.00
2018-08-25T15:18:35.427Z,94247.00
2018-08-25T15:21:07.483Z,94255.00
2018-08-25T15:23:39.317Z,94257.00
2018-08-25T15:26:12.176Z,94260.00
2018-08-25T15:28:45.615Z,94259.00
2018-08-25T15:31:17.966Z,94255.00
2018-08-25T15:33:50.410Z,94254.00
2018-08-25T15:36:22.536Z,94248.00
2018-08-25T15:38:54.181Z,94248.00
2018-08-25T15:41:27.191Z,94253.00
2018-08-25T15:43:59.796Z,94252.00
2018-08-25T15:46:31.842Z,94250.00
2018-08-25T15:49:04.421Z,94241.00
2018-08-25T15:51:36.942Z,94245.00
2018-08-25T15:54:09.702Z,94248.00
2018-08-25T15:56:41.407Z,94258.00
2018-08-25T15:59:13.727Z,94258.00
2018-08-25T16:01:46.312Z,94256.00
2018-08-25T16:04:18.650Z,94270.00
2018-08-25T16:06:51.046Z,94266.00
2018-08-25T16:09:23.051Z,94260.00
2018-08-25T16:11:55.465Z,94264.00
2018-08-25T16:14:28.349Z,94267.00
2018-08-25T16:17:01.088Z,94275.00
2018-08-25T16:19:33.200Z,94276.00
2018-08-25T16:22:05.668Z,94279.00
2018-08-25T16:24:38.453Z,94281.00
2018-08-25T16:27:10.719Z,94289.00
2018-08-25T16:29:43.515Z,94285.00
2018-08-25T16:32:15.887Z,94282.00
2018-08-25T16:34:48.300Z,94285.00
2018-08-25T16:37:20.899Z,94286.00
2018-08-25T16:39:53.276Z,94288.00
2018-08-25T16:42:25.738Z,94282.00
2018-08-25T16:44:58.306Z,94285.00
2018-08-25T16:47:30.740Z,94280.00
2018-08-25T16:50:02.590Z,94288.00
2018-08-25T16:52:35.434Z,94283.00
2018-08-25T16:55:07.767Z,94286.00
2018-08-25T16:57:40.565Z,94284.00
2018-08-25T17:00:12.957Z,94285.00
2018-08-25T17:02:45.660Z,94288.00
2018-08-25T17:05:19.200Z,94285.00
2018-08-25T17:07:51.116Z,94277.00
2018-08-25T17:10:23.769Z,94281.00
2018-08-25T17:12:56.250Z,94280.00
2018-08-25T17:15:29.735Z,94283.00
2018-08-25T17:18:01.973Z,94281.00
2018-08-25T17:20:34.457Z,94289.00
2018-08-25T17:23:06.834Z,94303.00
2018-08-25T17:25:39.175Z,94302.00
2018-08-25T17:28:11.433Z,94302.00
2018-08-25T17:30:43.900Z,94306.00
2018-08-25T17:33:16.487Z,94306.00
2018-08-25T17:35:48.515Z,94305.00
2018-08-25T17:38:20.581Z,94306.00
2018-08-25T17:40:52.827Z,94316.00
2018-08-25T17:43:24.751Z,94320.00
2018-08-25T17:45:56.975Z,94320.00
2018-08-25T17:48:29.392Z,94319.00
2018-08-25T17:51:02.130Z,94321.00
2018-08-25T17:53:34.292Z,94316.00
2018-08-25T17:56:07.382Z,94324.00
2018-08-25T17:58:39.531Z,94326.00
2018-08-25T18:01:12.153Z,94323.00
2018-08-25T18:03:44.462Z,94320.00
2018-08-25T18:06:16.891Z,94320.00
2018-08-25T18:08:49.315Z,94323.00
2018-08-25T18:11:22.789Z,94334.00
2018-08-25T18:13:54.526Z,94336.00
2018-08-25T18:16:27.535Z,94345.00
2018-08-25T18:18:59.550Z,94338.00
2018-08-25T18:21:32.307Z,94338.00
2018-08-25T18:24:04.418Z,94339.00
2018-08-25T18:26:36.525Z,94338.00
2018-08-25T18:29:08.843Z,94341.00
2018-08-25T18:31:41.701Z,94338.00
2018-08-25T18:34:15.074Z,94340.00
2018-08-25T18:36:47.530Z,94339.00
2018-08-25T18:39:20.164Z,94346.00
2018-08-25T18:41:52.608Z,94347.00
2018-08-25T18:44:24.699Z,94346.00
2018-08-25T18:46:57.122Z,94354.00
2018-08-25T18:49:28.990Z,94357.00
2018-08-25T18:52:01.370Z,94354.00
2018-08-25T18:54:34.410Z,94351.00
2018-08-25T18:57:06.117Z,94354.00
2018-08-25T18:59:38.214Z,94351.00
2018-08-25T19:02:10.958Z,94360.00
2018-08-25T19:04:42.863Z,94362.00
2018-08-25T19:07:15.242Z,94361.00
2018-08-25T19:09:48.259Z,94359.00
2018-08-25T19:12:20.629Z,94365.00
2018-08-25T19:14:53.609Z,94363.00
2018-08-25T19:17:26.290Z,94371.00
2018-08-25T19:19:59.031Z,94371.00
2018-08-25T19:22:31.727Z,94376.00
2018-08-25T19:25:04.020Z,94377.00
2018-08-25T19:27:36.631Z,94376.00
2018-08-25T19:30:09.574Z,94375.00
2018-08-25T19:32:41.956Z,94377.00
2018-08-25T19:35:15.099Z,94381.00
2018-08-25T19:37:47.986Z,94391.00
2018-08-25T19:40:20.058Z,94384.00
2018-08-25T19:42:52.245Z,94382.00
2018-08-25T19:45:24.727Z,94382.00
2018-08-25T19:47:57.082Z,94387.00
2018-08-25T19:50:29.238Z,94393.00
2018-08-25T19:53:01.859Z,94398.00
2018-08-25T19:55:33.634Z,94395.00
2018-08-25T19:58:06.055Z,94392.00
2018-08-25T20:00:38.539Z,94388.00
2018-08-25T20:03:10.874Z,94383.00
2018-08-25T20:05:44.121Z,94391.00
2018-08-25T20:08:16.363Z,94392.00
2018-08-25T20:10:48.909Z,94391.00
2018-08-25T20:13:20.879Z,94386.00
2018-08-25T20:15:52.983Z,94388.00
2018-08-25T20:18:25.815Z,94397.00
2018-08-25T20:20:58.501Z,94388.00
2018-08-25T20:23:31.075Z,94386.00
2018-08-25T20:26:04.009Z,94387.00
2018-08-25T20:28:36.291Z,94392.00
2018-08-25T20:31:09.047Z,94391.00
2018-08-25T20:33:41.436Z,94389.00
2018-08-25T20:36:13.551Z,94384.00
2018-08-25T20:38:45.671Z,94386.00
2018-08-25T20:41:18.563Z,94384.00
2018-08-25T20:43:51.789Z,94383.00
2018-08-25T20:46:24.204Z,94383.00
2018-08-25T20:48:56.748Z,94381.00
2018-08-25T20:51:29.469Z,94387.00
2018-08-25T20:54:04.156Z,94387.00
2018-08-25T20:56:36.809Z,94384.00
2018-08-25T20:59:09.101Z,94385.00
2018-08-25T21:01:41.252Z,94382.00
2018-08-25T21:04:13.619Z,94388.00
2018-08-25T21:06:46.237Z,94387.00
2018-08-25T21:09:18.780Z,94388.00
2018-08-25T21:11:51.286Z,94390.00
2018-08-25T21:14:24.024Z,94391.00
2018-08-25T21:16:56.793Z,94391.00
2018-08-25T21:19:29.400Z,94384.00
2018-08-25T21:22:01.743Z,94387.00
2018-08-25T21:24:34.419Z,94387.00
2018-08-25T21:27:06.529Z,94385.00
2018-08-25T21:29:38.969Z,94387.00
2018-08-25T21:32:11.734Z,94383.00
2018-08-25T21:34:43.839Z,94386.00
2018-08-25T21:37:16.885Z,94388.00
2018-08-25T21:39:49.175Z,94392.00
2018-08-25T21:42:22.018Z,94387.00
2018-08-25T21:44:54.549Z,94385.00
2018-08-25T21:47:26.619Z,94384.00
2018-08-25T21:49:59.114Z,94392.00
2018-08-25T21:52:31.819Z,94383.00
2018-08-25T21:55:04.181Z,94383.00
2018-08-25T21:57:37.046Z,94388.00
2018-08-25T22:00:10.096Z,94389.00
2018-08-25T22:02:42.230Z,94388.00
2018-08-25T22:05:14.427Z,94384.00
2018-08-25T22:07:46.647Z,94382.00
2018-08-25T22:10:18.727Z,94384.00
2018-08-25T22:12:51.450Z,94388.00
2018-08-25T22:15:23.765Z,94387.00
2018-08-25T22:17:56.178Z,94383.00
2018-08-25T22:20:28.557Z,94381.00
2018-08-25T22:23:01.175Z,94381.00
2018-08-25T22:25:33.445Z,94381.00
2018-08-25T22:28:05.587Z,94374.00
2018-08-25T22:30:37.882Z,94377.00
2018-08-25T22:33:10.074Z,94384.00
2018-08-25T22:35:43.130Z,94380.00
2018-08-25T22:38:15.037Z,94378.00
2018-08-25T22:40:48.535Z,94381.00
2018-08-25T22:43:20.583Z,94380.00
2018-08-25T22:45:52.884Z,94384.00
2018-08-25T22:48:24.995Z,94381.00
2018-08-25T22:50:57.514Z,94379.00
2018-08-25T22:53:29.470Z,94384.00
2018-08-25T22:56:01.939Z,94377.00
2018-08-25T22:58:34.159Z,94376.00
2018-08-25T23:01:07.487Z,94374.00
2018-08-25T23:03:39.997Z,94377.00
2018-08-25T23:06:12.884Z,94369.00
2018-08-25T23:08:44.803Z,94370.00
2018-08-25T23:11:17.657Z,94365.00
2018-08-25T23:13:50.263Z,94364.00
2018-08-25T23:16:22.250Z,94366.00
2018-08-25T23:18:54.510Z,94366.00
2018-08-25T23:21:26.777Z,94362.00
2018-08-25T23:23:58.798Z,94361.00
2018-08-25T23:26:30.994Z,94364.00
2018-08-25T23:29:02.992Z,94364.00
2018-08-25T23:31:35.329Z,94365.00
2018-08-25T23:34:07.313Z,94367.00
2018-08-25T23:36:39.247Z,94362.00
2018-08-25T23:39:12.072Z,94359.00
2018-08-25T23:41:44.151Z,94357.00
2018-08-25T23:44:16.090Z,94352.00
2018-08-25T23:46:48.522Z,94347.00
2018-08-25T23:49:20.706Z,94352.00
2018-08-25T23:51:52.964Z,94354.00
2018-08-25T23:54:25.199Z,94354.00
2018-08-25T23:56:56.969Z,94352.00
2018-08-25T23:59:28.819Z,94351.00
